createdAt,value
2023-03-17T00:01:56.466Z,99538.28
2023-03-17T00:04:26.384Z,99530.34
2023-03-17T00:06:57.012Z,99539.03
2023-03-17T00:09:26.076Z,99535.03
2023-03-17T00:11:54.977Z,99536.91
2023-03-17T00:14:24.202Z,99552.91
2023-03-17T00:16:54.070Z,99547.47
2023-03-17T00:19:31.455Z,99557.00
2023-03-17T00:22:02.338Z,99537.97
2023-03-17T00:24:32.069Z,99557.50
2023-03-17T00:27:01.177Z,99570.06
2023-03-17T00:29:30.670Z,99533.47
2023-03-17T00:32:00.364Z,99557.94
2023-03-17T00:34:30.179Z,99559.19
2023-03-17T00:36:59.182Z,99553.00
2023-03-17T00:39:29.627Z,99564.50
2023-03-17T00:41:58.861Z,99574.34
2023-03-17T00:44:27.992Z,99565.25
2023-03-17T00:46:59.357Z,99569.31
2023-03-17T00:49:30.288Z,99564.44
2023-03-17T00:51:59.234Z,99571.09
2023-03-17T00:54:29.616Z,99566.06
2023-03-17T00:57:01.410Z,99578.00
2023-03-17T00:59:31.128Z,99565.66
2023-03-17T01:01:59.892Z,99585.41
2023-03-17T01:04:28.394Z,99573.94
2023-03-17T01:06:57.232Z,99584.19
2023-03-17T01:09:27.215Z,99584.69
2023-03-17T01:11:57.643Z,99576.78
2023-03-17T01:14:26.528Z,99588.56
2023-03-17T01:16:55.458Z,99600.19
2023-03-17T01:19:24.352Z,99602.50
2023-03-17T01:21:53.069Z,99607.91
2023-03-17T01:24:21.892Z,99608.75
2023-03-17T01:26:51.341Z,99615.44
2023-03-17T01:29:21.952Z,99613.34
2023-03-17T01:31:50.803Z,99614.91
2023-03-17T01:34:19.707Z,99618.91
2023-03-17T01:36:48.809Z,99620.84
2023-03-17T01:39:18.247Z,99621.81
2023-03-17T01:41:47.341Z,99632.91
2023-03-17T01:44:17.150Z,99635.00
2023-03-17T01:46:47.756Z,99641.47
2023-03-17T01:49:19.662Z,99648.56
2023-03-17T01:51:53.368Z,99654.81
2023-03-17T01:54:24.864Z,99654.84
2023-03-17T01:56:55.641Z,99656.94
2023-03-17T01:59:28.126Z,99656.84
2023-03-17T02:02:03.051Z,99668.56
2023-03-17T02:04:32.789Z,99663.44
2023-03-17T02:07:02.834Z,99671.16
2023-03-17T02:09:33.316Z,99684.66
2023-03-17T02:12:03.213Z,99644.72
2023-03-17T02:14:32.835Z,99678.63
2023-03-17T02:17:03.153Z,99674.41
2023-03-17T02:19:32.352Z,99680.38
2023-03-17T02:22:02.842Z,99690.81
2023-03-17T02:24:33.577Z,99691.03
2023-03-17T02:27:05.880Z,99682.44
2023-03-17T02:29:36.300Z,99695.06
2023-03-17T02:32:05.677Z,99704.75
2023-03-17T02:34:36.905Z,99706.03
2023-03-17T02:37:09.643Z,99700.41
2023-03-17T02:39:38.290Z,99694.19
2023-03-17T02:42:07.868Z,99699.47
2023-03-17T02:44:36.533Z,99705.47
2023-03-17T02:47:05.110Z,99699.31
2023-03-17T02:49:34.720Z,99710.19
2023-03-17T02:52:03.091Z,99700.34
2023-03-17T02:54:33.416Z,99713.03
2023-03-17T02:57:02.499Z,99716.34
2023-03-17T02:59:31.212Z,99714.16
2023-03-17T03:01:59.790Z,99717.22
2023-03-17T03:04:28.791Z,99712.38
2023-03-17T03:06:58.013Z,99717.56
2023-03-17T03:09:27.147Z,99717.59
2023-03-17T03:11:57.627Z,99711.69
2023-03-17T03:14:26.350Z,99717.41
2023-03-17T03:16:55.188Z,99714.28
2023-03-17T03:19:24.702Z,99722.78
2023-03-17T03:21:53.984Z,99726.06
2023-03-17T03:24:23.090Z,99724.38
2023-03-17T03:26:52.194Z,99735.56
2023-03-17T03:29:22.884Z,99743.50
2023-03-17T03:31:52.134Z,99742.19
2023-03-17T03:34:21.022Z,99755.56
2023-03-17T03:36:49.926Z,99764.50
2023-03-17T03:39:18.638Z,99776.31
2023-03-17T03:41:47.170Z,99779.97
2023-03-17T03:44:16.472Z,99789.91
2023-03-17T03:46:47.102Z,99790.38
2023-03-17T03:49:16.121Z,99798.44
2023-03-17T03:51:44.548Z,99801.59
2023-03-17T03:54:12.867Z,99812.03
2023-03-17T03:56:41.950Z,99816.69
2023-03-17T03:59:11.523Z,99808.97
2023-03-17T04:01:40.508Z,99801.91
2023-03-17T04:04:10.666Z,99811.91
2023-03-17T04:06:39.858Z,99805.81
2023-03-17T04:09:09.492Z,99822.44
2023-03-17T04:11:38.305Z,99841.09
2023-03-17T04:14:07.923Z,99828.16
2023-03-17T04:16:37.185Z,99826.97
2023-03-17T04:19:05.881Z,99845.97
2023-03-17T04:21:36.084Z,99846.06
2023-03-17T04:24:05.488Z,99852.53
2023-03-17T04:26:34.268Z,99854.84
2023-03-17T04:29:03.007Z,99857.38
2023-03-17T04:31:31.992Z,99845.88
2023-03-17T04:34:00.745Z,99851.19
2023-03-17T04:36:29.642Z,99845.38
2023-03-17T04:39:00.365Z,99853.78
2023-03-17T04:41:29.316Z,99864.56
2023-03-17T04:43:57.940Z,99860.91
2023-03-17T04:46:27.045Z,99874.84
2023-03-17T04:48:56.245Z,99871.34
2023-03-17T04:51:25.333Z,99880.88
2023-03-17T04:53:54.132Z,99875.38
2023-03-17T04:56:24.548Z,99879.88
2023-03-17T04:58:53.348Z,99895.94
2023-03-17T05:01:22.471Z,99896.84
2023-03-17T05:03:51.332Z,99899.94
2023-03-17T05:06:20.135Z,99904.13
2023-03-17T05:08:49.125Z,99912.13
2023-03-17T05:11:17.921Z,99907.97
2023-03-17T05:13:48.201Z,99914.63
2023-03-17T05:16:17.750Z,99912.25
2023-03-17T05:18:47.352Z,99933.81
2023-03-17T05:21:16.552Z,99931.81
2023-03-17T05:23:45.429Z,99927.75
2023-03-17T05:26:14.449Z,99941.19
2023-03-17T05:28:43.342Z,99955.50
2023-03-17T05:31:13.973Z,99962.91
2023-03-17T05:33:43.782Z,99964.28
2023-03-17T05:36:12.733Z,99968.88
2023-03-17T05:38:42.258Z,99977.88
2023-03-17T05:41:10.851Z,99979.59
2023-03-17T05:43:39.943Z,99977.66
2023-03-17T05:46:09.585Z,99974.94
2023-03-17T05:48:39.362Z,99976.03
2023-03-17T05:51:08.191Z,99968.44
2023-03-17T05:53:37.668Z,99982.53
2023-03-17T05:56:06.692Z,99977.72
2023-03-17T05:58:35.353Z,99978.06
2023-03-17T06:01:03.733Z,99995.94
2023-03-17T06:03:33.064Z,99983.91
2023-03-17T06:06:04.055Z,100003.81
2023-03-17T06:08:33.561Z,100019.09
2023-03-17T06:11:02.879Z,100005.78
2023-03-17T06:13:31.857Z,99998.22
2023-03-17T06:16:01.064Z,100015.94
2023-03-17T06:18:30.896Z,99989.50
2023-03-17T06:21:00.476Z,100017.72
2023-03-17T06:23:31.721Z,100013.50
2023-03-17T06:26:00.408Z,100025.66
2023-03-17T06:28:29.616Z,100003.72
2023-03-17T06:30:58.258Z,100012.03
2023-03-17T06:33:27.710Z,100006.69
2023-03-17T06:35:59.077Z,100021.47
2023-03-17T06:38:28.195Z,100036.81
2023-03-17T06:40:58.092Z,100026.13
2023-03-17T06:43:26.866Z,100025.38
2023-03-17T06:45:55.330Z,100028.13
2023-03-17T06:48:25.036Z,100034.00
2023-03-17T06:50:53.886Z,100033.25
2023-03-17T06:53:22.772Z,100048.03
2023-03-17T06:55:51.783Z,100044.53
2023-03-17T06:58:21.941Z,100041.03
2023-03-17T07:00:53.703Z,100048.69
2023-03-17T07:03:24.187Z,100056.88
2023-03-17T07:05:52.906Z,100054.75
2023-03-17T07:08:22.295Z,100063.97
2023-03-17T07:10:51.686Z,100082.25
2023-03-17T07:13:22.570Z,100064.06
2023-03-17T07:15:53.347Z,100070.81
2023-03-17T07:18:23.975Z,100082.16
2023-03-17T07:20:52.826Z,100082.47
2023-03-17T07:23:23.189Z,100086.44
2023-03-17T07:25:52.032Z,100094.38
2023-03-17T07:28:22.406Z,100100.72
2023-03-17T07:30:51.247Z,100098.53
2023-03-17T07:33:21.569Z,100093.50
2023-03-17T07:35:50.573Z,100107.00
2023-03-17T07:38:20.675Z,100094.44
2023-03-17T07:40:50.306Z,100106.72
2023-03-17T07:43:19.294Z,100116.25
2023-03-17T07:45:49.462Z,100109.81
2023-03-17T07:48:18.455Z,100107.22
2023-03-17T07:50:47.690Z,100111.91
2023-03-17T07:53:16.018Z,100109.59
2023-03-17T07:55:44.183Z,100109.59
2023-03-17T07:58:15.188Z,100104.91
2023-03-17T08:00:44.374Z,100108.66
2023-03-17T08:03:14.656Z,100129.03
2023-03-17T08:05:43.382Z,100107.88
2023-03-17T08:08:12.897Z,100117.59
2023-03-17T08:10:41.512Z,100121.00
2023-03-17T08:13:10.170Z,100131.25
2023-03-17T08:15:38.973Z,100137.63
2023-03-17T08:18:07.458Z,100149.63
2023-03-17T08:20:38.147Z,100148.03
2023-03-17T08:23:06.932Z,100146.50
2023-03-17T08:25:35.464Z,100158.78
2023-03-17T08:28:04.966Z,100166.78
2023-03-17T08:30:35.002Z,100168.66
2023-03-17T08:33:04.413Z,100150.81
2023-03-17T08:35:33.897Z,100184.59
2023-03-17T08:38:04.119Z,100175.63
2023-03-17T08:40:32.770Z,100179.59
2023-03-17T08:43:01.752Z,100179.06
2023-03-17T08:45:30.863Z,100175.16
2023-03-17T08:47:59.651Z,100178.72
2023-03-17T08:50:28.362Z,100182.59
2023-03-17T08:52:57.459Z,100185.38
2023-03-17T08:55:27.778Z,100201.38
2023-03-17T08:57:56.521Z,100197.84
2023-03-17T09:00:25.563Z,100198.16
2023-03-17T09:02:54.577Z,100229.28
2023-03-17T09:05:22.844Z,100216.56
2023-03-17T09:07:51.743Z,100193.13
2023-03-17T09:10:23.798Z,100194.97
2023-03-17T09:12:54.743Z,100189.22
2023-03-17T09:15:23.098Z,100215.63
2023-03-17T09:17:52.424Z,100199.66
2023-03-17T09:20:22.460Z,100206.25
2023-03-17T09:22:51.426Z,100194.22
2023-03-17T09:25:20.946Z,100206.75
2023-03-17T09:27:49.917Z,100232.34
2023-03-17T09:30:20.653Z,100222.72
2023-03-17T09:32:49.507Z,100219.28
2023-03-17T09:35:18.031Z,100216.38
2023-03-17T09:37:46.508Z,100212.31
2023-03-17T09:40:17.708Z,100221.84
2023-03-17T09:42:54.956Z,100218.34
2023-03-17T09:45:30.555Z,100238.75
2023-03-17T09:48:05.040Z,100215.97
2023-03-17T09:50:37.495Z,100239.44
2023-03-17T09:53:06.774Z,100209.75
2023-03-17T09:55:36.709Z,100258.91
2023-03-17T09:58:06.214Z,100243.47
2023-03-17T10:00:36.734Z,100227.72
2023-03-17T10:03:05.327Z,100233.41
2023-03-17T10:05:37.051Z,100221.72
2023-03-17T10:08:28.893Z,100242.31
2023-03-17T10:11:03.455Z,100237.31
2023-03-17T10:13:38.644Z,100236.53
2023-03-17T10:16:11.263Z,100243.72
2023-03-17T10:18:43.303Z,100240.31
2023-03-17T10:21:15.389Z,100245.38
2023-03-17T10:23:44.496Z,100260.63
2023-03-17T10:26:22.054Z,100285.72
2023-03-17T10:28:50.647Z,100281.63
2023-03-17T10:31:22.155Z,100274.16
2023-03-17T10:33:52.849Z,100266.94
2023-03-17T10:36:34.840Z,100264.72
2023-03-17T10:39:05.811Z,100279.72
2023-03-17T10:41:36.208Z,100288.97
2023-03-17T10:44:09.811Z,100286.00
2023-03-17T10:46:40.774Z,100296.78
2023-03-17T10:49:11.075Z,100290.34
2023-03-17T10:51:40.827Z,100296.06
2023-03-17T10:54:11.321Z,100297.78
2023-03-17T10:56:42.692Z,100301.31
2023-03-17T10:59:18.962Z,100281.16
2023-03-17T11:01:54.381Z,100288.16
2023-03-17T11:04:29.220Z,100285.22
2023-03-17T11:06:58.500Z,100314.97
2023-03-17T11:09:29.330Z,100307.22
2023-03-17T11:12:03.018Z,100295.97
2023-03-17T11:14:31.570Z,100288.09
2023-03-17T11:17:02.960Z,100300.00
2023-03-17T11:19:37.669Z,100326.91
2023-03-17T11:22:10.362Z,100317.78
2023-03-17T11:24:45.597Z,100324.22
2023-03-17T11:27:18.121Z,100332.97
2023-03-17T11:29:53.300Z,100322.22
2023-03-17T11:32:28.490Z,100317.22
2023-03-17T11:35:04.756Z,100323.09
2023-03-17T11:37:42.557Z,100315.09
2023-03-17T11:40:16.815Z,100334.25
2023-03-17T11:42:49.498Z,100322.22
2023-03-17T11:45:22.905Z,100312.97
2023-03-17T11:48:00.962Z,100315.16
2023-03-17T11:50:32.158Z,100282.03
2023-03-17T11:53:07.396Z,100335.94
2023-03-17T11:55:40.645Z,100304.63
2023-03-17T11:58:13.721Z,100321.25
2023-03-17T12:00:46.268Z,100329.75
2023-03-17T12:03:19.425Z,100329.16
2023-03-17T12:05:51.647Z,100320.56
2023-03-17T12:08:24.649Z,100308.56
2023-03-17T12:10:54.806Z,100319.44
2023-03-17T12:13:24.660Z,100325.03
2023-03-17T12:15:55.834Z,100337.38
2023-03-17T12:18:31.201Z,100332.16
2023-03-17T12:21:02.037Z,100324.38
2023-03-17T12:23:34.335Z,100342.09
2023-03-17T12:26:06.216Z,100342.28
2023-03-17T12:28:37.996Z,100317.97
2023-03-17T12:31:08.296Z,100329.22
2023-03-17T12:33:44.071Z,100328.56
2023-03-17T12:36:16.358Z,100341.94
2023-03-17T12:38:47.453Z,100340.63
2023-03-17T12:41:25.189Z,100332.47
2023-03-17T12:44:02.411Z,100344.66
2023-03-17T12:46:49.434Z,100346.03
2023-03-17T12:49:37.126Z,100344.84
2023-03-17T12:52:14.970Z,100350.13
2023-03-17T12:54:48.208Z,100352.22
2023-03-17T12:57:19.357Z,100325.88
2023-03-17T12:59:49.328Z,100365.94
2023-03-17T13:02:22.145Z,100343.66
2023-03-17T13:04:58.216Z,100371.75
2023-03-17T13:07:28.711Z,100360.84
2023-03-17T13:10:18.991Z,100363.59
2023-03-17T13:13:05.935Z,100361.25
2023-03-17T13:16:04.796Z,100373.19
2023-03-17T13:18:53.924Z,100363.50
2023-03-17T13:21:29.210Z,100363.31
2023-03-17T13:24:01.533Z,100358.75
2023-03-17T13:26:48.286Z,100355.91
2023-03-17T13:29:25.122Z,100358.34
2023-03-17T13:31:53.855Z,100384.84
2023-03-17T13:34:22.652Z,100407.66
2023-03-17T13:36:57.982Z,100372.41
2023-03-17T13:39:46.353Z,100376.09
2023-03-17T13:42:29.461Z,100390.19
2023-03-17T13:45:13.417Z,100380.63
2023-03-17T13:47:43.479Z,100396.31
2023-03-17T13:50:16.018Z,100385.56
2023-03-17T13:52:48.670Z,100410.38
2023-03-17T13:55:34.715Z,100388.09
2023-03-17T13:58:18.278Z,100384.94
2023-03-17T14:00:49.251Z,100386.94
2023-03-17T14:03:20.967Z,100410.41
2023-03-17T14:05:50.861Z,100414.59
2023-03-17T14:08:23.909Z,100404.38
2023-03-17T14:10:54.954Z,100415.72
2023-03-17T14:13:25.796Z,100414.97
2023-03-17T14:15:57.340Z,100411.13
2023-03-17T14:18:32.175Z,100425.09
2023-03-17T14:21:02.415Z,100399.56
2023-03-17T14:23:32.517Z,100418.47
2023-03-17T14:26:01.108Z,100419.53
2023-03-17T14:28:31.109Z,100437.47
2023-03-17T14:31:01.611Z,100431.44
2023-03-17T14:33:30.963Z,100431.16
2023-03-17T14:36:00.219Z,100440.69
2023-03-17T14:38:30.275Z,100443.09
2023-03-17T14:41:04.746Z,100467.59
2023-03-17T14:43:33.378Z,100447.47
2023-03-17T14:46:03.043Z,100447.22
2023-03-17T14:48:33.200Z,100446.69
2023-03-17T14:51:06.033Z,100455.34
2023-03-17T14:53:36.053Z,100463.75
2023-03-17T14:56:06.277Z,100472.78
2023-03-17T14:58:38.203Z,100476.13
2023-03-17T15:01:08.418Z,100477.53
2023-03-17T15:03:39.988Z,100472.28
2023-03-17T15:06:21.904Z,100481.59
2023-03-17T15:08:51.004Z,100487.00
2023-03-17T15:11:23.038Z,100474.44
2023-03-17T15:13:55.271Z,100484.56
2023-03-17T15:16:25.091Z,100494.47
2023-03-17T15:18:58.811Z,100489.16
2023-03-17T15:21:33.909Z,100496.50
2023-03-17T15:24:05.889Z,100491.91
2023-03-17T15:26:38.543Z,100496.69
2023-03-17T15:29:08.368Z,100498.56
2023-03-17T15:31:37.012Z,100490.59
2023-03-17T15:34:05.619Z,100512.66
2023-03-17T15:36:34.693Z,100514.13
2023-03-17T15:39:03.772Z,100508.25
2023-03-17T15:41:32.364Z,100514.81
2023-03-17T15:44:04.081Z,100521.84
2023-03-17T15:46:34.016Z,100519.03
2023-03-17T15:49:02.593Z,100513.03
2023-03-17T15:51:31.140Z,100520.91
2023-03-17T15:53:59.618Z,100514.59
2023-03-17T15:56:28.196Z,100531.97
2023-03-17T15:58:56.837Z,100533.88
2023-03-17T16:01:28.051Z,100534.72
2023-03-17T16:03:57.142Z,100546.31
2023-03-17T16:06:25.945Z,100538.75
2023-03-17T16:08:54.557Z,100556.44
2023-03-17T16:11:28.383Z,100559.16
2023-03-17T16:13:57.928Z,100558.19
2023-03-17T16:16:31.990Z,100563.53
2023-03-17T16:19:00.784Z,100569.69
2023-03-17T16:21:31.046Z,100575.22
2023-03-17T16:24:00.097Z,100575.09
2023-03-17T16:26:29.017Z,100577.19
2023-03-17T16:28:58.591Z,100595.63
2023-03-17T16:31:30.976Z,100597.16
2023-03-17T16:33:59.693Z,100599.69
2023-03-17T16:36:28.340Z,100598.41
2023-03-17T16:38:57.388Z,100601.03
2023-03-17T16:41:27.853Z,100610.16
2023-03-17T16:44:00.065Z,100611.16
2023-03-17T16:46:34.788Z,100616.59
2023-03-17T16:49:04.643Z,100616.91
2023-03-17T16:51:33.370Z,100629.75
2023-03-17T16:54:02.204Z,100620.38
2023-03-17T16:56:31.901Z,100629.22
2023-03-17T16:59:01.015Z,100640.53
2023-03-17T17:01:31.475Z,100642.91
2023-03-17T17:04:00.521Z,100640.38
2023-03-17T17:06:29.124Z,100642.88
2023-03-17T17:08:57.907Z,100644.06
2023-03-17T17:11:26.596Z,100640.03
2023-03-17T17:13:54.926Z,100651.91
2023-03-17T17:16:24.642Z,100646.84
2023-03-17T17:18:54.393Z,100643.69
2023-03-17T17:21:33.106Z,100657.56
2023-03-17T17:24:01.294Z,100654.44
2023-03-17T17:26:29.430Z,100652.31
2023-03-17T17:28:57.617Z,100668.84
2023-03-17T17:31:25.698Z,100670.22
2023-03-17T17:33:55.729Z,100672.84
2023-03-17T17:36:26.628Z,100672.84
2023-03-17T17:38:54.870Z,100671.78
2023-03-17T17:41:23.187Z,100674.25
2023-03-17T17:43:51.895Z,100676.50
2023-03-17T17:46:21.562Z,100683.03
2023-03-17T17:48:50.194Z,100681.03
2023-03-17T17:51:19.737Z,100686.22
2023-03-17T17:53:48.062Z,100689.94
2023-03-17T17:56:16.616Z,100690.25
2023-03-17T17:58:45.217Z,100687.97
2023-03-17T18:01:14.321Z,100684.09
2023-03-17T18:03:43.255Z,100696.25
2023-03-17T18:06:11.850Z,100694.78
2023-03-17T18:08:43.647Z,100703.16
2023-03-17T18:11:12.088Z,100702.91
2023-03-17T18:13:41.127Z,100708.47
2023-03-17T18:16:10.871Z,100706.63
2023-03-17T18:18:42.445Z,100716.91
2023-03-17T18:21:11.023Z,100723.09
2023-03-17T18:23:39.278Z,100719.75
2023-03-17T18:26:11.413Z,100726.44
2023-03-17T18:28:39.655Z,100731.72
2023-03-17T18:31:10.625Z,100738.72
2023-03-17T18:33:40.095Z,100738.94
2023-03-17T18:36:09.064Z,100735.75
2023-03-17T18:38:37.570Z,100740.56
2023-03-17T18:41:08.130Z,100740.91
2023-03-17T18:43:37.867Z,100740.28
2023-03-17T18:46:06.536Z,100753.13
2023-03-17T18:48:36.336Z,100758.44
2023-03-17T18:51:07.147Z,100757.09
2023-03-17T18:53:35.630Z,100751.50
2023-03-17T18:56:04.657Z,100768.25
2023-03-17T18:58:32.894Z,100768.31
2023-03-17T19:01:02.647Z,100772.06
2023-03-17T19:03:32.430Z,100771.78
2023-03-17T19:06:08.354Z,100776.44
2023-03-17T19:08:37.303Z,100770.72
2023-03-17T19:11:06.325Z,100776.38
2023-03-17T19:13:34.569Z,100776.28
2023-03-17T19:16:04.376Z,100776.16
2023-03-17T19:18:33.093Z,100782.16
2023-03-17T19:21:01.439Z,100778.91
2023-03-17T19:23:30.075Z,100785.41
2023-03-17T19:25:58.269Z,100783.78
2023-03-17T19:28:26.652Z,100798.53
2023-03-17T19:30:56.372Z,100772.06
2023-03-17T19:33:26.640Z,100795.06
2023-03-17T19:35:56.160Z,100803.66
2023-03-17T19:38:24.843Z,100798.31
2023-03-17T19:40:53.042Z,100797.53
2023-03-17T19:43:39.116Z,100797.28
2023-03-17T19:46:08.984Z,100801.72
2023-03-17T19:48:38.554Z,100805.13
2023-03-17T19:51:08.130Z,100809.78
2023-03-17T19:53:37.534Z,100808.50
2023-03-17T19:56:09.103Z,100812.84
2023-03-17T19:58:40.711Z,100817.97
2023-03-17T20:01:28.125Z,100826.16
2023-03-17T20:03:58.013Z,100821.72
2023-03-17T20:06:26.160Z,100824.16
2023-03-17T20:08:54.342Z,100810.63
2023-03-17T20:11:22.548Z,100826.41
2023-03-17T20:13:50.926Z,100826.63
2023-03-17T20:16:19.101Z,100824.66
2023-03-17T20:18:47.273Z,100828.56
2023-03-17T20:21:16.820Z,100824.06
2023-03-17T20:23:44.886Z,100827.56
2023-03-17T20:26:13.193Z,100838.69
2023-03-17T20:28:41.667Z,100829.72
2023-03-17T20:31:09.933Z,100824.09
2023-03-17T20:33:38.018Z,100830.34
2023-03-17T20:36:06.333Z,100839.88
2023-03-17T20:38:38.400Z,100838.53
2023-03-17T20:41:08.426Z,100829.19
2023-03-17T20:43:37.618Z,100837.16
2023-03-17T20:46:08.918Z,100842.44
2023-03-17T20:48:37.477Z,100848.75
2023-03-17T20:51:06.383Z,100847.66
2023-03-17T20:53:36.518Z,100853.19
2023-03-17T20:56:04.945Z,100851.53
2023-03-17T20:58:33.087Z,100851.22
2023-03-17T21:01:01.958Z,100848.53
2023-03-17T21:03:30.039Z,100856.28
2023-03-17T21:05:58.316Z,100853.19
2023-03-17T21:08:26.847Z,100863.38
2023-03-17T21:10:56.549Z,100855.13
2023-03-17T21:13:24.677Z,100870.25
2023-03-17T21:15:53.326Z,100864.97
2023-03-17T21:18:21.792Z,100867.63
2023-03-17T21:20:50.845Z,100865.44
2023-03-17T21:23:19.031Z,100864.31
2023-03-17T21:25:47.913Z,100868.81
2023-03-17T21:28:17.405Z,100870.19
2023-03-17T21:30:45.679Z,100873.75
2023-03-17T21:33:13.828Z,100878.56
2023-03-17T21:35:41.971Z,100877.22
2023-03-17T21:38:10.313Z,100882.56
2023-03-17T21:40:38.458Z,100886.97
2023-03-17T21:43:06.917Z,100881.56
2023-03-17T21:45:37.044Z,100881.28
2023-03-17T21:48:05.403Z,100888.38
2023-03-17T21:50:33.672Z,100879.06
2023-03-17T21:53:02.105Z,100890.47
2023-03-17T21:55:30.221Z,100896.59
2023-03-17T21:57:59.179Z,100897.91
2023-03-17T22:00:33.385Z,100900.03
2023-03-17T22:03:06.380Z,100904.06
2023-03-17T22:05:34.639Z,100903.94
2023-03-17T22:08:03.316Z,100904.41
2023-03-17T22:10:32.151Z,100907.88
2023-03-17T22:13:00.645Z,100901.44
2023-03-17T22:15:29.325Z,100906.59
2023-03-17T22:17:57.802Z,100913.34
2023-03-17T22:20:27.403Z,100916.72
2023-03-17T22:22:55.694Z,100916.50
2023-03-17T22:25:24.156Z,100914.53
2023-03-17T22:27:53.788Z,100928.34
2023-03-17T22:30:21.813Z,100924.03
2023-03-17T22:32:50.179Z,100920.13
2023-03-17T22:35:19.714Z,100925.06
2023-03-17T22:37:49.297Z,100924.09
2023-03-17T22:40:17.839Z,100930.41
2023-03-17T22:42:46.017Z,100940.00
2023-03-17T22:45:14.199Z,100934.19
2023-03-17T22:47:42.297Z,100931.41
2023-03-17T22:50:11.046Z,100942.88
2023-03-17T22:52:39.150Z,100946.31
2023-03-17T22:55:10.538Z,100947.31
2023-03-17T22:57:38.772Z,100950.44
2023-03-17T23:00:09.118Z,100953.28
2023-03-17T23:02:37.278Z,100955.53
2023-03-17T23:05:05.699Z,100957.97
2023-03-17T23:07:47.916Z,100961.31
2023-03-17T23:10:22.310Z,100958.25
2023-03-17T23:12:50.949Z,100964.78
2023-03-17T23:15:19.854Z,100962.84
2023-03-17T23:17:48.341Z,100966.72
2023-03-17T23:20:16.513Z,100968.03
2023-03-17T23:22:44.753Z,100972.72
2023-03-17T23:25:13.719Z,100975.31
2023-03-17T23:27:43.258Z,100969.22
2023-03-17T23:30:13.029Z,100975.94
2023-03-17T23:32:41.888Z,100978.94
2023-03-17T23:35:10.535Z,100976.22
2023-03-17T23:37:38.635Z,100981.38
2023-03-17T23:40:07.584Z,100985.47
2023-03-17T23:42:35.716Z,100984.75
2023-03-17T23:45:05.421Z,100985.91
2023-03-17T23:47:33.657Z,100990.22
2023-03-17T23:50:02.261Z,100999.59
2023-03-17T23:52:31.845Z,100992.81
2023-03-17T23:55:01.117Z,100997.34
2023-03-17T23:57:30.594Z,100995.50
2023-03-17T23:59:58.836Z,101003.69
